createdAt,value
2022-10-18T00:00:43.849Z,12.19
2022-10-18T00:03:10.121Z,12.16
2022-10-18T00:05:36.397Z,12.15
2022-10-18T00:08:02.721Z,12.11
2022-10-18T00:10:28.962Z,12.10
2022-10-18T00:12:55.232Z,12.06
2022-10-18T00:15:21.498Z,12.07
2022-10-18T00:17:47.845Z,12.03
2022-10-18T00:20:14.158Z,11.99
2022-10-18T00:22:41.199Z,11.96
2022-10-18T00:25:08.280Z,11.96
2022-10-18T00:27:34.877Z,11.94
2022-10-18T00:30:01.366Z,11.91
2022-10-18T00:32:27.877Z,11.91
2022-10-18T00:34:54.326Z,11.94
2022-10-18T00:37:20.582Z,11.96
2022-10-18T00:39:46.904Z,12.00
2022-10-18T00:42:16.323Z,11.99
2022-10-18T00:44:42.547Z,11.99
2022-10-18T00:47:09.739Z,12.02
2022-10-18T00:49:37.956Z,12.08
2022-10-18T00:52:06.506Z,12.14
2022-10-18T00:54:33.970Z,12.16
2022-10-18T00:57:00.661Z,12.17
2022-10-18T00:59:27.184Z,12.16
2022-10-18T01:01:53.504Z,12.14
2022-10-18T01:04:20.762Z,12.12
2022-10-18T01:07:07.287Z,12.10
2022-10-18T01:09:36.354Z,12.08
2022-10-18T01:12:05.641Z,12.04
2022-10-18T01:14:35.174Z,12.05
2022-10-18T01:17:21.417Z,12.05
2022-10-18T01:19:47.631Z,12.07
2022-10-18T01:22:21.052Z,12.08
2022-10-18T01:24:58.355Z,12.07
2022-10-18T01:27:24.664Z,12.06
2022-10-18T01:30:11.430Z,12.05
2022-10-18T01:32:41.882Z,12.00
2022-10-18T01:35:11.098Z,11.94
2022-10-18T01:37:38.403Z,11.93
2022-10-18T01:40:08.383Z,11.92
2022-10-18T01:42:35.053Z,11.90
2022-10-18T01:45:01.664Z,11.89
2022-10-18T01:47:28.678Z,11.87
2022-10-18T01:49:59.496Z,11.81
2022-10-18T01:52:25.864Z,11.81
2022-10-18T01:54:53.923Z,11.78
2022-10-18T01:57:20.167Z,11.77
2022-10-18T01:59:54.768Z,11.69
2022-10-18T02:02:24.004Z,11.65
2022-10-18T02:04:56.430Z,11.65
2022-10-18T02:07:41.653Z,11.63
2022-10-18T02:12:43.365Z,11.56
2022-10-18T02:15:11.926Z,11.52
2022-10-18T02:17:39.680Z,11.49
2022-10-18T02:20:08.744Z,11.42
2022-10-18T02:22:36.454Z,11.39
2022-10-18T02:25:05.669Z,11.41
2022-10-18T02:27:31.923Z,11.38
2022-10-18T02:29:58.648Z,11.36
2022-10-18T02:32:24.917Z,11.37
2022-10-18T02:34:58.903Z,11.39
2022-10-18T02:37:29.989Z,11.38
2022-10-18T02:39:56.587Z,11.39
2022-10-18T02:42:22.874Z,11.41
2022-10-18T02:44:49.131Z,11.41
2022-10-18T02:47:15.458Z,11.43
2022-10-18T02:49:41.752Z,11.48
2022-10-18T02:52:08.066Z,11.50
2022-10-18T02:54:34.349Z,11.52
2022-10-18T02:57:00.707Z,11.57
2022-10-18T02:59:26.965Z,11.62
2022-10-18T03:01:53.273Z,11.65
2022-10-18T03:04:19.629Z,11.68
2022-10-18T03:06:45.914Z,11.69
2022-10-18T03:09:12.215Z,11.72
2022-10-18T03:11:38.483Z,11.75
2022-10-18T03:14:04.789Z,11.76
2022-10-18T03:16:31.464Z,11.77
2022-10-18T03:18:57.727Z,11.79
2022-10-18T03:21:24.006Z,11.80
2022-10-18T03:23:50.275Z,11.82
2022-10-18T03:26:16.548Z,11.82
2022-10-18T03:28:42.976Z,11.83
2022-10-18T03:31:09.264Z,11.86
2022-10-18T03:33:35.507Z,11.88
2022-10-18T03:36:01.833Z,11.91
2022-10-18T03:38:31.736Z,11.95
2022-10-18T03:40:58.006Z,11.96
2022-10-18T03:43:24.322Z,12.00
2022-10-18T03:45:50.632Z,12.02
2022-10-18T03:48:16.874Z,12.01
2022-10-18T03:50:43.661Z,12.03
2022-10-18T03:53:09.957Z,12.02
2022-10-18T03:55:37.058Z,12.02
2022-10-18T03:58:03.384Z,12.01
2022-10-18T04:00:29.675Z,11.99
2022-10-18T04:02:56.178Z,11.99
2022-10-18T04:05:24.098Z,11.99
2022-10-18T04:07:50.521Z,12.00
2022-10-18T04:10:16.887Z,11.98
2022-10-18T04:12:43.135Z,11.96
2022-10-18T04:15:09.691Z,11.95
2022-10-18T04:17:35.946Z,11.96
2022-10-18T04:20:02.351Z,11.92
2022-10-18T04:22:28.622Z,11.91
2022-10-18T04:24:56.743Z,11.91
2022-10-18T04:27:23.059Z,11.88
2022-10-18T04:29:49.341Z,11.82
2022-10-18T04:32:15.631Z,11.76
2022-10-18T04:37:13.121Z,11.65
2022-10-18T04:39:39.425Z,11.62
2022-10-18T04:42:05.734Z,11.61
2022-10-18T04:44:32.029Z,11.59
2022-10-18T04:46:58.326Z,11.56
2022-10-18T04:49:24.589Z,11.54
2022-10-18T04:51:50.865Z,11.53
2022-10-18T04:54:17.172Z,11.53
2022-10-18T04:56:43.496Z,11.54
2022-10-18T04:59:09.759Z,11.55
2022-10-18T05:01:36.998Z,11.53
2022-10-18T05:04:03.521Z,11.55
2022-10-18T05:06:29.802Z,11.55
2022-10-18T05:08:56.089Z,11.53
2022-10-18T05:11:22.342Z,11.54
2022-10-18T05:13:50.862Z,11.54
2022-10-18T05:16:17.441Z,11.54
2022-10-18T05:18:43.832Z,11.53
2022-10-18T05:21:10.466Z,11.52
2022-10-18T05:23:36.711Z,11.51
2022-10-18T05:26:04.236Z,11.49
2022-10-18T05:28:46.195Z,11.48
2022-10-18T05:31:12.712Z,11.44
2022-10-18T05:33:38.962Z,11.43
2022-10-18T05:36:05.336Z,11.41
2022-10-18T05:38:31.686Z,11.40
2022-10-18T05:40:58.540Z,11.39
2022-10-18T05:43:27.735Z,11.37
2022-10-18T05:45:54.090Z,11.38
2022-10-18T05:48:20.353Z,11.35
2022-10-18T05:50:46.598Z,11.30
2022-10-18T05:53:31.818Z,11.23
2022-10-18T05:56:02.397Z,11.15
2022-10-18T05:58:28.837Z,11.10
2022-10-18T06:00:57.760Z,11.07
2022-10-18T06:03:24.028Z,11.02
2022-10-18T06:05:50.309Z,11.00
2022-10-18T06:08:16.559Z,10.98
2022-10-18T06:10:42.818Z,10.96
2022-10-18T06:13:09.065Z,10.91
2022-10-18T06:15:35.331Z,10.90
2022-10-18T06:18:01.617Z,10.89
2022-10-18T06:20:27.865Z,10.90
2022-10-18T06:22:54.143Z,10.88
2022-10-18T06:25:20.383Z,10.85
2022-10-18T06:27:46.640Z,10.85
2022-10-18T06:30:12.966Z,10.87
2022-10-18T06:32:39.229Z,10.88
2022-10-18T06:35:05.778Z,10.92
2022-10-18T06:37:32.417Z,11.01
2022-10-18T06:39:58.851Z,11.07
2022-10-18T06:42:25.159Z,11.10
2022-10-18T06:44:51.469Z,11.12
2022-10-18T06:47:17.753Z,11.11
2022-10-18T06:49:44.041Z,11.11
2022-10-18T06:52:10.347Z,11.11
2022-10-18T06:54:36.635Z,11.11
2022-10-18T06:57:03.160Z,11.15
2022-10-18T06:59:31.304Z,11.17
2022-10-18T07:01:57.934Z,11.17
2022-10-18T07:04:24.243Z,11.21
2022-10-18T07:06:50.995Z,11.24
2022-10-18T07:09:17.297Z,11.29
2022-10-18T07:11:43.638Z,11.33
2022-10-18T07:14:13.932Z,11.34
2022-10-18T07:16:42.441Z,11.35
2022-10-18T07:19:08.734Z,11.37
2022-10-18T07:21:37.678Z,11.40
2022-10-18T07:24:03.997Z,11.42
2022-10-18T07:26:31.929Z,11.44
2022-10-18T07:29:01.375Z,11.48
2022-10-18T07:31:29.983Z,11.49
2022-10-18T07:33:56.271Z,11.50
2022-10-18T07:36:22.602Z,11.53
2022-10-18T07:38:49.239Z,11.57
2022-10-18T07:41:15.587Z,11.59
2022-10-18T07:43:46.192Z,11.64
2022-10-18T07:46:12.755Z,11.67
2022-10-18T07:48:41.250Z,11.77
2022-10-18T07:51:07.912Z,11.81
2022-10-18T07:53:40.590Z,11.85
2022-10-18T07:56:14.124Z,11.88
2022-10-18T07:58:42.784Z,11.91
2022-10-18T08:01:09.552Z,11.95
2022-10-18T08:03:36.726Z,12.00
2022-10-18T08:06:03.771Z,12.03
2022-10-18T08:08:30.432Z,12.04
2022-10-18T08:11:04.161Z,12.02
2022-10-18T08:13:30.637Z,12.06
2022-10-18T08:16:16.366Z,12.06
2022-10-18T08:18:49.927Z,12.06
2022-10-18T08:21:19.610Z,12.04
2022-10-18T08:23:49.171Z,12.06
2022-10-18T08:26:17.374Z,12.06
2022-10-18T08:28:53.895Z,12.04
2022-10-18T08:31:30.475Z,12.02
2022-10-18T08:33:57.542Z,11.99
2022-10-18T08:36:23.875Z,11.95
2022-10-18T08:38:50.207Z,11.90
2022-10-18T08:41:41.977Z,11.90
2022-10-18T08:44:08.440Z,11.90
2022-10-18T08:46:36.708Z,11.85
2022-10-18T08:49:06.973Z,11.80
2022-10-18T08:51:44.355Z,11.78
2022-10-18T08:54:15.622Z,11.74
2022-10-18T08:56:45.419Z,11.73
2022-10-18T08:59:12.808Z,11.71
2022-10-18T09:01:51.048Z,11.74
2022-10-18T09:04:27.162Z,11.77
2022-10-18T09:07:13.891Z,11.77
2022-10-18T09:09:40.160Z,11.87
2022-10-18T09:12:33.413Z,11.94
2022-10-18T09:15:12.309Z,11.94
2022-10-18T09:17:38.544Z,12.00
2022-10-18T09:20:22.039Z,12.08
2022-10-18T09:22:52.465Z,12.20
2022-10-18T09:25:53.688Z,12.20
2022-10-18T09:28:41.455Z,12.27
2022-10-18T09:31:15.370Z,12.33
2022-10-18T09:33:44.826Z,12.40
2022-10-18T09:36:15.986Z,12.41
2022-10-18T09:39:02.493Z,12.48
2022-10-18T09:41:39.841Z,12.45
2022-10-18T09:44:13.932Z,12.43
2022-10-18T09:46:43.459Z,12.42
2022-10-18T09:49:21.894Z,12.39
2022-10-18T09:51:49.314Z,12.30
2022-10-18T09:54:18.703Z,12.37
2022-10-18T09:59:49.987Z,12.82
2022-10-18T10:02:21.462Z,13.08
2022-10-18T10:04:55.934Z,13.35
2022-10-18T10:07:29.770Z,13.53
2022-10-18T10:10:03.971Z,13.55
2022-10-18T10:12:30.350Z,13.43
2022-10-18T10:15:09.671Z,13.37
2022-10-18T10:17:36.042Z,13.24
2022-10-18T10:20:04.673Z,13.00
2022-10-18T10:22:40.417Z,12.83
2022-10-18T10:25:07.537Z,12.71
2022-10-18T10:27:46.546Z,12.78
2022-10-18T10:30:29.431Z,12.79
2022-10-18T10:33:02.273Z,12.82
2022-10-18T10:38:24.736Z,13.19
2022-10-18T10:40:52.393Z,13.31
2022-10-18T10:43:38.711Z,13.44
2022-10-18T10:46:07.385Z,13.63
2022-10-18T10:48:39.227Z,13.73
2022-10-18T10:51:12.451Z,14.03
2022-10-18T10:53:55.002Z,14.22
2022-10-18T10:56:26.565Z,14.54
2022-10-18T10:58:56.188Z,14.86
2022-10-18T11:01:27.194Z,14.92
2022-10-18T11:03:55.346Z,15.06
2022-10-18T11:06:34.057Z,15.90
2022-10-18T11:09:01.457Z,16.19
2022-10-18T11:11:31.166Z,16.47
2022-10-18T11:14:26.641Z,16.91
2022-10-18T11:17:17.692Z,17.19
2022-10-18T11:20:02.430Z,17.36
2022-10-18T11:22:32.476Z,17.20
2022-10-18T11:25:01.872Z,17.50
2022-10-18T11:27:41.479Z,17.63
2022-10-18T11:30:07.776Z,17.36
2022-10-18T11:32:41.138Z,17.19
2022-10-18T11:35:26.226Z,17.63
2022-10-18T11:38:02.838Z,17.51
2022-10-18T11:40:35.118Z,16.54
2022-10-18T11:43:07.477Z,16.06
2022-10-18T11:45:57.660Z,15.95
2022-10-18T11:48:28.355Z,15.81
2022-10-18T11:51:08.814Z,16.27
2022-10-18T11:53:41.730Z,17.02
2022-10-18T11:56:11.644Z,17.45
2022-10-18T11:58:47.737Z,17.10
2022-10-18T12:01:28.623Z,16.20
2022-10-18T12:04:10.316Z,15.19
2022-10-18T12:06:42.028Z,14.78
2022-10-18T12:09:26.571Z,14.92
2022-10-18T12:12:00.953Z,14.67
2022-10-18T12:14:30.748Z,14.52
2022-10-18T12:17:27.984Z,14.37
2022-10-18T12:19:49.721Z,14.62
2022-10-18T12:22:33.375Z,14.67
2022-10-18T12:25:01.858Z,14.43
2022-10-18T12:27:46.150Z,14.08
2022-10-18T12:30:35.005Z,13.72
2022-10-18T12:33:27.790Z,13.48
2022-10-18T12:36:22.817Z,13.21
2022-10-18T12:38:52.720Z,12.95
2022-10-18T12:41:29.778Z,13.31
2022-10-18T12:43:59.274Z,14.50
2022-10-18T12:46:46.751Z,14.92
2022-10-18T12:49:14.197Z,14.33
2022-10-18T12:52:01.244Z,13.94
2022-10-18T12:54:34.712Z,13.74
2022-10-18T12:57:09.145Z,13.58
2022-10-18T12:59:35.431Z,13.85
2022-10-18T13:02:04.832Z,14.62
2022-10-18T13:04:35.111Z,14.94
2022-10-18T13:07:08.228Z,15.12
2022-10-18T13:09:38.625Z,14.71
2022-10-18T13:12:05.705Z,14.02
2022-10-18T13:15:05.670Z,13.71
2022-10-18T13:18:00.840Z,13.54
2022-10-18T13:20:48.273Z,13.41
2022-10-18T13:23:31.635Z,13.25
2022-10-18T13:26:05.378Z,13.00
2022-10-18T13:28:38.753Z,12.86
2022-10-18T13:31:20.828Z,12.99
2022-10-18T13:33:47.330Z,13.07
2022-10-18T13:36:21.626Z,13.25
2022-10-18T13:38:55.710Z,13.62
2022-10-18T13:41:32.695Z,14.02
2022-10-18T13:44:04.358Z,14.42
2022-10-18T13:46:33.625Z,14.72
2022-10-18T13:49:06.215Z,14.91
2022-10-18T13:51:32.500Z,14.81
2022-10-18T13:54:17.337Z,14.81
2022-10-18T13:56:51.707Z,14.72
2022-10-18T13:59:26.960Z,14.73
2022-10-18T14:01:59.470Z,14.69
2022-10-18T14:04:42.401Z,14.61
2022-10-18T14:07:08.973Z,14.43
2022-10-18T14:09:45.096Z,14.33
2022-10-18T14:12:21.579Z,14.24
2022-10-18T14:15:20.516Z,14.15
2022-10-18T14:17:56.750Z,14.09
2022-10-18T14:20:36.913Z,14.00
2022-10-18T14:23:21.182Z,13.92
2022-10-18T14:25:47.981Z,13.87
2022-10-18T14:28:21.686Z,13.83
2022-10-18T14:30:57.949Z,13.89
2022-10-18T14:33:33.149Z,13.90
2022-10-18T14:36:01.438Z,13.93
2022-10-18T14:38:28.076Z,13.90
2022-10-18T14:41:14.176Z,13.94
2022-10-18T14:43:40.544Z,13.90
2022-10-18T14:46:10.695Z,13.87
2022-10-18T14:48:37.014Z,13.87
2022-10-18T14:51:04.466Z,13.84
2022-10-18T14:53:36.198Z,13.77
2022-10-18T14:56:04.385Z,13.80
2022-10-18T14:58:31.544Z,13.82
2022-10-18T15:00:58.805Z,13.83
2022-10-18T15:03:26.187Z,13.85
2022-10-18T15:05:57.629Z,13.83
2022-10-18T15:08:25.488Z,13.77
2022-10-18T15:10:52.242Z,13.72
2022-10-18T15:13:18.638Z,13.67
2022-10-18T15:15:45.067Z,13.64
2022-10-18T15:18:22.558Z,13.63
2022-10-18T15:21:06.997Z,13.59
2022-10-18T15:23:33.260Z,13.53
2022-10-18T15:26:02.216Z,13.49
2022-10-18T15:28:36.638Z,13.44
2022-10-18T15:31:04.002Z,13.43
2022-10-18T15:33:54.675Z,13.31
2022-10-18T15:36:26.351Z,13.24
2022-10-18T15:38:52.659Z,13.20
2022-10-18T15:41:38.621Z,13.20
2022-10-18T15:44:16.276Z,13.17
2022-10-18T15:46:42.556Z,13.13
2022-10-18T15:49:28.777Z,13.13
2022-10-18T15:52:13.898Z,13.09
2022-10-18T15:54:40.212Z,13.00
2022-10-18T15:57:07.396Z,12.96
2022-10-18T15:59:33.684Z,12.92
2022-10-18T16:02:00.215Z,12.90
2022-10-18T16:04:27.843Z,12.85
2022-10-18T16:06:55.676Z,12.83
2022-10-18T16:09:23.449Z,12.80
2022-10-18T16:11:55.775Z,12.81
2022-10-18T16:14:24.018Z,12.79
2022-10-18T16:16:51.623Z,12.76
2022-10-18T16:19:24.034Z,12.74
2022-10-18T16:21:51.498Z,12.70
2022-10-18T16:24:18.139Z,12.72
2022-10-18T16:26:44.583Z,12.70
2022-10-18T16:29:14.888Z,12.66
2022-10-18T16:31:41.298Z,12.63
2022-10-18T16:34:10.870Z,12.63
2022-10-18T16:36:37.176Z,12.54
2022-10-18T16:39:07.613Z,12.44
2022-10-18T16:41:33.936Z,12.37
2022-10-18T16:44:00.209Z,12.36
2022-10-18T16:46:30.908Z,12.34
2022-10-18T16:48:57.559Z,12.35
2022-10-18T16:51:24.551Z,12.36
2022-10-18T16:53:51.058Z,12.36
2022-10-18T16:56:18.972Z,12.36
2022-10-18T16:58:45.880Z,12.38
2022-10-18T17:01:13.435Z,12.34
2022-10-18T17:03:39.848Z,12.32
2022-10-18T17:06:17.993Z,12.32
2022-10-18T17:08:44.748Z,12.32
2022-10-18T17:11:11.770Z,12.30
2022-10-18T17:13:38.775Z,12.29
2022-10-18T17:16:05.375Z,12.29
2022-10-18T17:18:31.835Z,12.30
2022-10-18T17:21:00.689Z,12.32
2022-10-18T17:23:29.339Z,12.31
2022-10-18T17:26:05.027Z,12.28
2022-10-18T17:28:40.025Z,12.25
2022-10-18T17:31:09.718Z,12.20
2022-10-18T17:33:37.576Z,12.16
2022-10-18T17:36:04.191Z,12.11
2022-10-18T17:38:30.500Z,12.09
2022-10-18T17:40:57.098Z,12.07
2022-10-18T17:43:23.575Z,12.01
2022-10-18T17:45:51.104Z,11.99
2022-10-18T17:48:17.531Z,11.98
2022-10-18T17:50:44.196Z,11.94
2022-10-18T17:53:11.911Z,11.91
2022-10-18T17:55:38.520Z,11.88
2022-10-18T17:58:04.939Z,11.86
2022-10-18T18:00:31.209Z,11.83
2022-10-18T18:02:59.237Z,11.80
2022-10-18T18:05:25.612Z,11.79
2022-10-18T18:07:51.959Z,11.78
2022-10-18T18:10:18.233Z,11.75
2022-10-18T18:12:45.507Z,11.69
2022-10-18T18:15:12.553Z,11.62
2022-10-18T18:17:56.068Z,11.54
2022-10-18T18:20:26.637Z,11.48
2022-10-18T18:22:55.301Z,11.41
2022-10-18T18:25:21.567Z,11.37
2022-10-18T18:27:47.839Z,11.30
2022-10-18T18:30:15.294Z,11.27
2022-10-18T18:32:41.650Z,11.25
2022-10-18T18:35:07.966Z,11.21
2022-10-18T18:37:34.332Z,11.16
2022-10-18T18:40:00.612Z,11.14
2022-10-18T18:42:26.971Z,11.04
2022-10-18T18:44:53.348Z,10.96
2022-10-18T18:47:21.607Z,10.86
2022-10-18T18:49:48.284Z,10.80
2022-10-18T18:52:14.568Z,10.72
2022-10-18T18:54:40.846Z,10.63
2022-10-18T18:57:07.183Z,10.56
2022-10-18T18:59:34.038Z,10.53
2022-10-18T19:02:00.306Z,10.51
2022-10-18T19:04:26.644Z,10.47
2022-10-18T19:06:52.977Z,10.43
2022-10-18T19:09:21.805Z,10.36
2022-10-18T19:11:57.557Z,10.30
2022-10-18T19:14:25.409Z,10.24
2022-10-18T19:17:01.934Z,10.18
2022-10-18T19:19:35.131Z,10.16
2022-10-18T19:22:08.253Z,10.14
2022-10-18T19:24:37.554Z,10.12
2022-10-18T19:27:08.466Z,10.17
2022-10-18T19:29:36.551Z,10.24
2022-10-18T19:32:04.455Z,10.34
2022-10-18T19:34:31.668Z,10.42
2022-10-18T19:37:01.138Z,10.48
2022-10-18T19:39:31.388Z,10.52
2022-10-18T19:41:59.219Z,10.57
2022-10-18T19:44:27.396Z,10.62
2022-10-18T19:46:54.634Z,10.64
2022-10-18T19:49:23.379Z,10.65
2022-10-18T19:51:49.800Z,10.65
2022-10-18T19:54:16.584Z,10.68
2022-10-18T19:56:43.289Z,10.73
2022-10-18T19:59:10.008Z,10.72
2022-10-18T20:01:37.676Z,10.72
2022-10-18T20:04:04.522Z,10.71
2022-10-18T20:06:33.828Z,10.71
2022-10-18T20:09:00.141Z,10.70
2022-10-18T20:11:30.042Z,10.63
2022-10-18T20:14:04.059Z,10.48
2022-10-18T20:16:34.785Z,10.36
2022-10-18T20:19:02.400Z,10.31
2022-10-18T20:21:36.056Z,10.31
2022-10-18T20:24:03.136Z,10.25
2022-10-18T20:26:36.952Z,10.20
2022-10-18T20:29:04.887Z,10.16
2022-10-18T20:31:32.358Z,10.18
2022-10-18T20:34:02.835Z,10.21
2022-10-18T20:36:48.036Z,10.24
2022-10-18T20:39:18.725Z,10.27
2022-10-18T20:41:45.546Z,10.27
2022-10-18T20:44:15.775Z,10.25
2022-10-18T20:46:42.611Z,10.24
2022-10-18T20:49:11.118Z,10.23
2022-10-18T20:51:37.409Z,10.14
2022-10-18T20:56:34.329Z,10.03
2022-10-18T20:59:01.219Z,9.99
2022-10-18T21:01:28.854Z,9.98
2022-10-18T21:03:56.192Z,9.96
2022-10-18T21:06:22.420Z,9.94
2022-10-18T21:08:55.391Z,9.94
2022-10-18T21:11:25.357Z,9.93
2022-10-18T21:13:52.398Z,9.92
2022-10-18T21:16:18.709Z,9.90
2022-10-18T21:18:45.087Z,9.83
2022-10-18T21:21:16.058Z,9.74
2022-10-18T21:23:42.785Z,9.66
2022-10-18T21:26:13.362Z,9.57
2022-10-18T21:28:39.625Z,9.53
2022-10-18T21:31:16.941Z,9.48
2022-10-18T21:33:43.846Z,9.41
2022-10-18T21:36:10.211Z,9.39
2022-10-18T21:38:37.146Z,9.32
2022-10-18T21:41:07.669Z,9.29
2022-10-18T21:43:33.949Z,9.31
2022-10-18T21:46:00.388Z,9.35
2022-10-18T21:48:27.390Z,9.37
2022-10-18T21:50:53.942Z,9.42
2022-10-18T21:53:20.557Z,9.53
2022-10-18T21:55:48.136Z,9.58
2022-10-18T21:58:14.581Z,9.64
2022-10-18T22:00:40.917Z,9.67
2022-10-18T22:03:07.966Z,9.68
2022-10-18T22:05:34.212Z,9.70
2022-10-18T22:08:00.451Z,9.72
2022-10-18T22:10:26.874Z,9.71
2022-10-18T22:12:53.149Z,9.72
2022-10-18T22:15:19.476Z,9.73
2022-10-18T22:17:45.736Z,9.74
2022-10-18T22:20:12.282Z,9.71
2022-10-18T22:22:55.743Z,9.66
2022-10-18T22:25:54.425Z,9.63
2022-10-18T22:28:52.403Z,9.62
2022-10-18T22:31:49.647Z,9.66
2022-10-18T22:34:57.813Z,9.71
2022-10-18T22:37:26.783Z,9.78
2022-10-18T22:40:09.478Z,9.78
2022-10-18T22:42:52.366Z,9.80
2022-10-18T22:45:18.816Z,9.81
2022-10-18T22:47:45.242Z,9.84
2022-10-18T22:50:11.477Z,9.85
2022-10-18T22:52:37.777Z,9.87
2022-10-18T22:55:04.198Z,9.90
2022-10-18T22:57:30.511Z,9.91
2022-10-18T22:59:56.831Z,9.91
2022-10-18T23:02:23.072Z,9.91
2022-10-18T23:04:49.312Z,9.91
2022-10-18T23:07:15.555Z,9.94
2022-10-18T23:09:41.801Z,9.92
2022-10-18T23:12:08.105Z,9.91
2022-10-18T23:14:34.383Z,9.91
2022-10-18T23:17:00.624Z,9.91
2022-10-18T23:19:26.874Z,9.92
2022-10-18T23:21:53.129Z,9.91
2022-10-18T23:24:19.428Z,9.91
2022-10-18T23:26:45.808Z,9.91
2022-10-18T23:29:12.098Z,9.91
2022-10-18T23:31:38.631Z,9.91
2022-10-18T23:34:05.393Z,9.92
2022-10-18T23:36:32.775Z,9.94
2022-10-18T23:38:59.396Z,9.92
2022-10-18T23:41:25.774Z,9.91
2022-10-18T23:43:52.486Z,9.92
2022-10-18T23:46:19.255Z,9.91
2022-10-18T23:48:45.907Z,9.90
2022-10-18T23:51:12.207Z,9.92
2022-10-18T23:53:38.842Z,9.91
2022-10-18T23:56:06.404Z,9.93
2022-10-18T23:58:33.528Z,9.92
